createdAt,value
2022-10-01T00:00:52.820Z,0.45
2022-10-01T00:03:20.238Z,0.70
2022-10-01T00:05:46.968Z,0.68
2022-10-01T00:08:16.766Z,1.40
2022-10-01T00:10:44.139Z,0.40
2022-10-01T00:13:11.400Z,0.40
2022-10-01T00:15:41.128Z,0.57
2022-10-01T00:18:08.970Z,0.50
2022-10-01T00:20:35.495Z,0.40
2022-10-01T00:23:02.047Z,1.00
2022-10-01T00:25:28.552Z,0.30
2022-10-01T00:27:55.488Z,1.40
2022-10-01T00:30:22.179Z,0.50
2022-10-01T00:32:48.668Z,1.02
2022-10-01T00:35:15.432Z,0.70
2022-10-01T00:37:42.611Z,0.70
2022-10-01T00:40:09.569Z,0.60
2022-10-01T00:42:36.088Z,1.00
2022-10-01T00:45:02.601Z,1.23
2022-10-01T00:47:33.849Z,0.88
2022-10-01T00:50:33.148Z,0.77
2022-10-01T00:53:02.222Z,0.75
2022-10-01T00:55:36.578Z,1.55
2022-10-01T00:58:04.608Z,0.98
2022-10-01T01:00:31.671Z,0.63
2022-10-01T01:02:58.220Z,0.68
2022-10-01T01:05:24.808Z,1.75
2022-10-01T01:07:52.780Z,1.13
2022-10-01T01:10:30.924Z,0.88
2022-10-01T01:13:13.380Z,0.60
2022-10-01T01:15:49.883Z,0.70
2022-10-01T01:18:40.538Z,0.70
2022-10-01T01:21:22.208Z,0.50
2022-10-01T01:24:24.213Z,0.55
2022-10-01T01:27:27.717Z,0.60
2022-10-01T01:30:03.741Z,0.43
2022-10-01T01:32:35.548Z,0.85
2022-10-01T01:37:34.667Z,0.93
2022-10-01T01:40:02.925Z,1.65
2022-10-01T01:42:32.939Z,1.00
2022-10-01T01:45:01.146Z,1.55
2022-10-01T01:47:32.879Z,0.95
2022-10-01T01:52:27.731Z,1.10
2022-10-01T01:54:54.465Z,0.70
2022-10-01T01:57:21.157Z,1.17
2022-10-01T01:59:47.731Z,0.50
2022-10-01T02:02:19.226Z,1.23
2022-10-01T02:04:54.714Z,0.55
2022-10-01T02:07:38.500Z,0.70
2022-10-01T02:10:16.971Z,0.50
2022-10-01T02:13:04.830Z,0.32
2022-10-01T02:15:41.326Z,0.60
2022-10-01T02:18:07.811Z,0.40
2022-10-01T02:20:42.418Z,0.30
2022-10-01T02:23:12.231Z,0.40
2022-10-01T02:25:43.513Z,0.20
2022-10-01T02:28:12.362Z,0.40
2022-10-01T02:30:39.472Z,0.75
2022-10-01T02:33:07.166Z,0.40
2022-10-01T02:35:35.094Z,0.82
2022-10-01T02:38:04.234Z,1.98
2022-10-01T02:40:33.691Z,0.32
2022-10-01T02:43:03.854Z,0.50
2022-10-01T02:45:32.494Z,0.35
2022-10-01T02:48:03.371Z,0.82
2022-10-01T02:50:34.940Z,0.80
2022-10-01T02:53:31.007Z,1.30
2022-10-01T02:55:58.503Z,0.35
2022-10-01T02:58:25.129Z,0.40
2022-10-01T03:00:52.661Z,0.43
2022-10-01T03:03:19.524Z,2.25
2022-10-01T03:05:46.022Z,0.25
2022-10-01T03:08:12.573Z,0.63
2022-10-01T03:10:41.505Z,0.32
2022-10-01T03:13:11.204Z,3.13
2022-10-01T03:15:37.808Z,7.85
2022-10-01T03:18:04.367Z,0.73
2022-10-01T03:20:30.874Z,0.40
2022-10-01T03:22:57.375Z,0.30
2022-10-01T03:25:23.876Z,0.73
2022-10-01T03:27:50.431Z,1.48
2022-10-01T03:30:16.999Z,0.63
2022-10-01T03:32:43.574Z,1.00
2022-10-01T03:35:10.092Z,1.50
2022-10-01T03:37:36.653Z,0.30
2022-10-01T03:40:03.484Z,0.47
2022-10-01T03:42:30.016Z,0.52
2022-10-01T03:44:56.521Z,1.20
2022-10-01T03:47:24.387Z,0.43
2022-10-01T03:49:50.924Z,1.38
2022-10-01T03:52:17.923Z,0.40
2022-10-01T03:54:44.526Z,0.73
2022-10-01T03:57:11.015Z,0.30
2022-10-01T03:59:37.579Z,0.30
2022-10-01T04:02:04.208Z,0.90
2022-10-01T04:04:31.087Z,0.40
2022-10-01T04:06:57.591Z,0.22
2022-10-01T04:09:24.100Z,0.73
2022-10-01T04:11:50.622Z,0.40
2022-10-01T04:14:17.179Z,0.30
2022-10-01T04:16:44.656Z,1.10
2022-10-01T04:19:11.212Z,0.20
2022-10-01T04:21:39.171Z,0.38
2022-10-01T04:24:05.875Z,0.50
2022-10-01T04:26:32.409Z,0.40
2022-10-01T04:28:58.917Z,1.00
2022-10-01T04:31:25.671Z,1.95
2022-10-01T04:33:54.152Z,0.32
2022-10-01T04:36:20.834Z,0.77
2022-10-01T04:38:47.591Z,0.57
2022-10-01T04:41:14.912Z,0.73
2022-10-01T04:43:41.515Z,1.02
2022-10-01T04:46:08.017Z,0.47
2022-10-01T04:48:34.556Z,0.60
2022-10-01T04:51:01.042Z,1.52
2022-10-01T04:53:27.589Z,0.52
2022-10-01T04:55:54.143Z,0.93
2022-10-01T04:58:20.694Z,0.75
2022-10-01T05:00:48.749Z,1.02
2022-10-01T05:03:15.504Z,0.50
2022-10-01T05:05:42.012Z,0.32
2022-10-01T05:08:08.553Z,0.60
2022-10-01T05:10:35.545Z,0.50
2022-10-01T05:13:02.484Z,0.50
2022-10-01T05:15:30.232Z,0.45
2022-10-01T05:17:57.493Z,0.75
2022-10-01T05:20:26.631Z,0.57
2022-10-01T05:22:53.473Z,2.45
2022-10-01T05:25:20.494Z,1.63
2022-10-01T05:27:47.296Z,1.10
2022-10-01T05:30:20.142Z,0.75
2022-10-01T05:32:54.272Z,4.05
2022-10-01T05:35:21.098Z,1.10
2022-10-01T05:37:47.677Z,1.48
2022-10-01T05:40:14.202Z,1.30
2022-10-01T05:42:46.169Z,1.60
2022-10-01T05:47:43.758Z,1.15
2022-10-01T05:50:10.706Z,1.83
2022-10-01T05:52:37.212Z,1.05
2022-10-01T05:55:04.207Z,2.35
2022-10-01T05:57:31.377Z,1.30
2022-10-01T05:59:58.027Z,0.60
2022-10-01T06:02:24.710Z,2.47
2022-10-01T06:04:51.562Z,1.05
2022-10-01T06:07:18.100Z,0.60
2022-10-01T06:09:45.222Z,1.02
2022-10-01T06:12:13.654Z,0.65
2022-10-01T06:14:42.956Z,1.67
2022-10-01T06:17:09.564Z,0.90
2022-10-01T06:19:36.080Z,0.80
2022-10-01T06:22:02.586Z,1.45
2022-10-01T06:24:30.205Z,2.10
2022-10-01T06:26:57.187Z,1.13
2022-10-01T06:29:24.099Z,0.85
2022-10-01T06:31:51.452Z,1.08
2022-10-01T06:34:17.985Z,2.38
2022-10-01T06:36:44.490Z,0.90
2022-10-01T06:39:10.991Z,1.25
2022-10-01T06:41:37.707Z,1.20
2022-10-01T06:44:04.309Z,3.03
2022-10-01T06:46:31.866Z,0.50
2022-10-01T06:48:58.347Z,0.70
2022-10-01T06:51:44.806Z,0.95
2022-10-01T06:54:11.416Z,1.23
2022-10-01T06:56:37.999Z,2.63
2022-10-01T06:59:04.537Z,0.60
2022-10-01T07:01:32.971Z,0.85
2022-10-01T07:03:59.797Z,0.85
2022-10-01T07:06:26.360Z,1.10
2022-10-01T07:08:52.900Z,1.25
2022-10-01T07:11:19.953Z,1.30
2022-10-01T07:13:49.036Z,0.70
2022-10-01T07:16:17.731Z,0.60
2022-10-01T07:18:44.321Z,2.47
2022-10-01T07:21:10.889Z,0.77
2022-10-01T07:23:37.388Z,2.40
2022-10-01T07:26:05.591Z,3.28
2022-10-01T07:28:32.121Z,0.68
2022-10-01T07:31:07.241Z,1.88
2022-10-01T07:33:34.073Z,1.75
2022-10-01T07:36:02.347Z,2.63
2022-10-01T07:38:29.046Z,0.98
2022-10-01T07:40:55.609Z,1.35
2022-10-01T07:43:22.517Z,1.05
2022-10-01T07:45:50.108Z,1.05
2022-10-01T07:48:16.890Z,1.55
2022-10-01T07:50:47.289Z,1.23
2022-10-01T07:53:14.150Z,1.45
2022-10-01T07:55:40.663Z,0.52
2022-10-01T07:58:07.365Z,1.17
2022-10-01T08:00:34.123Z,0.70
2022-10-01T08:03:00.792Z,0.50
2022-10-01T08:05:33.435Z,0.75
2022-10-01T08:08:02.662Z,0.88
2022-10-01T08:10:30.006Z,0.50
2022-10-01T08:13:08.746Z,1.13
2022-10-01T08:15:36.027Z,0.57
2022-10-01T08:18:03.426Z,1.27
2022-10-01T08:20:30.341Z,0.77
2022-10-01T08:23:07.713Z,0.82
2022-10-01T08:25:34.508Z,0.45
2022-10-01T08:28:01.485Z,1.05
2022-10-01T08:30:29.022Z,0.43
2022-10-01T08:32:56.928Z,0.65
2022-10-01T08:35:24.853Z,0.50
2022-10-01T08:37:51.399Z,1.45
2022-10-01T08:40:19.627Z,0.52
2022-10-01T08:42:54.814Z,0.60
2022-10-01T08:45:30.307Z,0.60
2022-10-01T08:48:09.253Z,0.88
2022-10-01T08:51:08.017Z,1.17
2022-10-01T08:53:41.812Z,1.45
2022-10-01T08:56:19.506Z,0.38
2022-10-01T08:58:49.472Z,0.40
2022-10-01T09:01:16.017Z,0.40
2022-10-01T09:03:42.620Z,0.82
2022-10-01T09:06:18.187Z,0.50
2022-10-01T09:09:09.549Z,0.90
2022-10-01T09:11:52.870Z,1.13
2022-10-01T09:14:31.657Z,1.25
2022-10-01T09:17:35.940Z,0.98
2022-10-01T09:20:24.025Z,0.60
2022-10-01T09:23:16.126Z,0.40
2022-10-01T09:25:43.679Z,0.38
2022-10-01T09:28:23.613Z,0.90
2022-10-01T09:30:57.039Z,0.98
2022-10-01T09:33:29.523Z,0.40
2022-10-01T09:36:13.256Z,0.40
2022-10-01T09:38:41.943Z,0.55
2022-10-01T09:41:10.656Z,0.50
2022-10-01T09:43:39.557Z,0.55
2022-10-01T09:46:13.435Z,0.75
2022-10-01T09:48:55.282Z,0.85
2022-10-01T09:54:15.247Z,0.40
2022-10-01T09:56:48.010Z,0.30
2022-10-01T09:59:22.848Z,0.40
2022-10-01T10:01:56.009Z,0.38
2022-10-01T10:04:23.976Z,0.50
2022-10-01T10:06:53.309Z,1.48
2022-10-01T10:09:24.436Z,0.50
2022-10-01T10:11:51.653Z,0.60
2022-10-01T10:14:25.461Z,0.43
2022-10-01T10:16:52.004Z,0.65
2022-10-01T10:19:27.216Z,0.35
2022-10-01T10:22:00.600Z,0.45
2022-10-01T10:24:32.545Z,0.63
2022-10-01T10:27:01.046Z,0.73
2022-10-01T10:29:31.265Z,1.17
2022-10-01T10:31:59.163Z,1.15
2022-10-01T10:34:40.829Z,0.47
2022-10-01T10:39:41.099Z,0.90
2022-10-01T10:42:08.425Z,0.40
2022-10-01T10:44:39.555Z,0.60
2022-10-01T10:47:12.004Z,0.90
2022-10-01T10:49:43.208Z,0.85
2022-10-01T10:52:30.337Z,1.00
2022-10-01T10:54:58.976Z,0.85
2022-10-01T10:57:28.140Z,0.47
2022-10-01T10:59:59.547Z,3.95
2022-10-01T11:02:31.181Z,0.40
2022-10-01T11:05:00.007Z,0.47
2022-10-01T11:07:27.496Z,0.88
2022-10-01T11:10:14.492Z,1.08
2022-10-01T11:12:44.623Z,0.57
2022-10-01T11:15:15.176Z,0.45
2022-10-01T11:17:51.088Z,0.40
2022-10-01T11:20:32.377Z,1.60
2022-10-01T11:23:17.597Z,0.32
2022-10-01T11:26:10.331Z,0.30
2022-10-01T11:28:46.121Z,0.55
2022-10-01T11:31:15.454Z,0.60
2022-10-01T11:34:08.528Z,0.55
2022-10-01T11:37:20.329Z,0.68
2022-10-01T11:39:48.777Z,1.00
2022-10-01T11:42:22.513Z,0.35
2022-10-01T11:44:57.421Z,0.85
2022-10-01T11:47:41.944Z,0.95
2022-10-01T11:50:16.410Z,1.15
2022-10-01T11:52:52.816Z,0.55
2022-10-01T11:55:40.570Z,0.40
2022-10-01T11:58:31.034Z,1.60
2022-10-01T12:01:10.074Z,1.13
2022-10-01T12:03:51.827Z,0.35
2022-10-01T12:06:30.481Z,0.85
2022-10-01T12:09:06.380Z,1.45
2022-10-01T12:11:52.681Z,0.68
2022-10-01T12:14:23.503Z,0.95
2022-10-01T12:16:52.880Z,0.93
2022-10-01T12:19:31.955Z,0.73
2022-10-01T12:22:16.129Z,2.75
2022-10-01T12:24:44.252Z,0.85
2022-10-01T12:27:20.009Z,1.85
2022-10-01T12:29:54.763Z,0.50
2022-10-01T12:32:36.448Z,1.35
2022-10-01T12:38:23.692Z,1.65
2022-10-01T12:43:28.426Z,0.82
2022-10-01T12:45:55.164Z,0.98
2022-10-01T12:48:43.273Z,0.63
2022-10-01T12:51:20.393Z,0.65
2022-10-01T12:54:05.664Z,0.55
2022-10-01T12:56:37.433Z,1.25
2022-10-01T12:59:11.282Z,0.88
2022-10-01T13:01:37.779Z,1.10
2022-10-01T13:04:18.301Z,0.80
2022-10-01T13:07:16.194Z,0.70
2022-10-01T13:09:55.688Z,2.13
2022-10-01T13:12:48.536Z,0.70
2022-10-01T13:15:21.858Z,2.35
2022-10-01T13:18:06.495Z,1.02
2022-10-01T13:20:41.060Z,0.80
2022-10-01T13:23:23.271Z,1.27
2022-10-01T13:26:05.228Z,0.75
2022-10-01T13:28:43.778Z,0.75
2022-10-01T13:31:14.795Z,0.90
2022-10-01T13:33:41.923Z,1.98
2022-10-01T13:36:10.646Z,2.03
2022-10-01T13:38:46.149Z,1.88
2022-10-01T13:41:22.811Z,0.55
2022-10-01T13:44:18.525Z,0.95
2022-10-01T13:47:03.134Z,1.25
2022-10-01T13:49:30.875Z,1.00
2022-10-01T13:51:58.540Z,0.82
2022-10-01T13:54:31.113Z,1.27
2022-10-01T13:57:08.575Z,0.52
2022-10-01T13:59:36.585Z,0.55
2022-10-01T14:02:20.099Z,0.50
2022-10-01T14:04:48.204Z,1.17
2022-10-01T14:07:18.144Z,0.50
2022-10-01T14:09:46.540Z,0.47
2022-10-01T14:12:57.891Z,0.80
2022-10-01T14:15:45.615Z,0.38
2022-10-01T14:18:17.431Z,0.40
2022-10-01T14:21:13.733Z,0.47
2022-10-01T14:23:46.338Z,0.85
2022-10-01T14:26:31.538Z,1.00
2022-10-01T14:29:13.689Z,0.60
2022-10-01T14:31:45.544Z,0.40
2022-10-01T14:34:17.159Z,1.10
2022-10-01T14:36:51.375Z,0.30
2022-10-01T14:39:20.485Z,0.93
2022-10-01T14:41:49.209Z,0.40
2022-10-01T14:44:26.172Z,0.50
2022-10-01T14:46:55.256Z,1.17
2022-10-01T14:49:26.361Z,1.55
2022-10-01T14:51:56.664Z,0.50
2022-10-01T14:54:23.756Z,0.70
2022-10-01T14:56:50.971Z,0.60
2022-10-01T14:59:22.807Z,0.80
2022-10-01T15:02:01.474Z,0.80
2022-10-01T15:04:28.344Z,0.93
2022-10-01T15:06:55.281Z,0.73
2022-10-01T15:09:21.881Z,0.57
2022-10-01T15:11:50.600Z,1.20
2022-10-01T15:14:25.038Z,0.65
2022-10-01T15:16:51.973Z,0.73
2022-10-01T15:19:21.045Z,0.60
2022-10-01T15:21:51.580Z,1.85
2022-10-01T15:24:26.261Z,0.70
2022-10-01T15:26:54.455Z,0.85
2022-10-01T15:29:21.110Z,0.82
2022-10-01T15:31:49.230Z,4.03
2022-10-01T15:34:18.344Z,0.93
2022-10-01T15:36:46.126Z,2.60
2022-10-01T15:39:24.703Z,1.90
2022-10-01T15:41:52.551Z,3.30
2022-10-01T15:44:48.346Z,0.80
2022-10-01T15:47:34.431Z,1.42
2022-10-01T15:50:09.844Z,0.57
2022-10-01T15:52:51.560Z,1.38
2022-10-01T15:57:50.854Z,1.13
2022-10-01T16:00:26.472Z,1.58
2022-10-01T16:02:53.365Z,1.95
2022-10-01T16:05:27.270Z,0.95
2022-10-01T16:07:58.400Z,1.90
2022-10-01T16:10:37.543Z,1.73
2022-10-01T16:13:26.745Z,3.10
2022-10-01T16:16:22.599Z,1.67
2022-10-01T16:18:56.148Z,3.85
2022-10-01T16:21:22.860Z,1.58
2022-10-01T16:23:54.516Z,1.85
2022-10-01T16:29:18.402Z,2.65
2022-10-01T16:31:45.386Z,4.13
2022-10-01T16:34:13.367Z,4.35
2022-10-01T16:36:39.935Z,3.08
2022-10-01T16:39:06.693Z,1.35
2022-10-01T16:41:36.550Z,4.32
2022-10-01T16:44:05.236Z,4.72
2022-10-01T16:46:32.986Z,2.78
2022-10-01T16:48:59.764Z,4.75
2022-10-01T16:51:27.074Z,3.28
2022-10-01T16:53:55.003Z,3.65
2022-10-01T16:56:26.254Z,3.28
2022-10-01T16:58:53.809Z,3.75
2022-10-01T17:01:20.484Z,4.97
2022-10-01T17:03:47.149Z,2.90
2022-10-01T17:06:13.650Z,2.40
2022-10-01T17:08:40.302Z,7.65
2022-10-01T17:11:10.618Z,3.38
2022-10-01T17:13:39.077Z,5.93
2022-10-01T17:16:06.658Z,2.30
2022-10-01T17:18:33.287Z,2.75
2022-10-01T17:21:02.888Z,3.30
2022-10-01T17:23:29.436Z,4.65
2022-10-01T17:25:56.030Z,2.85
2022-10-01T17:28:24.407Z,3.00
2022-10-01T17:30:51.100Z,3.35
2022-10-01T17:33:19.332Z,4.47
2022-10-01T17:35:51.614Z,4.07
2022-10-01T17:38:19.396Z,2.75
2022-10-01T17:40:46.113Z,3.88
2022-10-01T17:43:14.333Z,6.68
2022-10-01T17:45:41.428Z,5.47
2022-10-01T17:48:08.442Z,4.93
2022-10-01T17:50:35.675Z,4.07
2022-10-01T17:53:02.249Z,9.52
2022-10-01T17:55:29.075Z,3.90
2022-10-01T17:57:55.917Z,5.22
2022-10-01T18:00:22.475Z,5.07
2022-10-01T18:02:49.165Z,6.40
2022-10-01T18:05:17.250Z,5.75
2022-10-01T18:07:43.764Z,3.65
2022-10-01T18:10:13.051Z,4.15
2022-10-01T18:12:39.991Z,3.58
2022-10-01T18:15:07.137Z,4.30
2022-10-01T18:17:36.373Z,2.42
2022-10-01T18:20:07.654Z,4.60
2022-10-01T18:22:38.053Z,3.38
2022-10-01T18:25:05.669Z,5.82
2022-10-01T18:27:32.204Z,3.75
2022-10-01T18:29:58.696Z,2.35
2022-10-01T18:32:27.866Z,2.22
2022-10-01T18:34:55.728Z,2.63
2022-10-01T18:37:30.541Z,5.05
2022-10-01T18:40:12.918Z,2.65
2022-10-01T18:43:04.002Z,3.15
2022-10-01T18:45:49.442Z,3.07
2022-10-01T18:48:21.789Z,4.68
2022-10-01T18:50:54.273Z,4.60
2022-10-01T18:53:49.975Z,4.13
2022-10-01T18:56:37.553Z,6.50
2022-10-01T18:59:42.560Z,2.83
2022-10-01T19:02:50.098Z,2.25
2022-10-01T19:06:24.583Z,3.10
2022-10-01T19:08:57.238Z,2.83
2022-10-01T19:11:29.524Z,3.05
2022-10-01T19:14:10.809Z,2.67
2022-10-01T19:17:01.084Z,4.93
2022-10-01T19:19:38.653Z,2.88
2022-10-01T19:22:28.430Z,2.50
2022-10-01T19:25:05.661Z,2.72
2022-10-01T19:27:57.157Z,3.17
2022-10-01T19:30:23.725Z,2.42
2022-10-01T19:32:56.824Z,3.40
2022-10-01T19:35:29.841Z,3.42
2022-10-01T19:38:08.448Z,1.75
2022-10-01T19:40:56.557Z,3.60
2022-10-01T19:43:32.920Z,2.25
2022-10-01T19:46:06.348Z,1.88
2022-10-01T19:48:53.026Z,2.63
2022-10-01T19:51:22.475Z,2.80
2022-10-01T19:53:52.946Z,4.22
2022-10-01T19:56:24.432Z,3.35
2022-10-01T19:58:51.002Z,3.80
2022-10-01T20:01:21.955Z,4.03
2022-10-01T20:03:59.650Z,2.75
2022-10-01T20:06:38.161Z,2.88
2022-10-01T20:09:23.515Z,3.05
2022-10-01T20:11:59.153Z,2.38
2022-10-01T20:15:07.512Z,2.58
2022-10-01T20:17:55.275Z,2.17
2022-10-01T20:20:37.094Z,1.63
2022-10-01T20:25:35.948Z,1.23
2022-10-01T20:28:44.745Z,1.80
2022-10-01T20:31:16.307Z,1.58
2022-10-01T20:33:52.064Z,3.10
2022-10-01T20:36:35.151Z,1.63
2022-10-01T20:39:41.193Z,1.67
2022-10-01T20:42:16.097Z,1.52
2022-10-01T20:44:42.840Z,2.80
2022-10-01T20:47:43.657Z,1.42
2022-10-01T20:50:15.593Z,1.58
2022-10-01T20:52:52.174Z,2.47
2022-10-01T20:55:29.447Z,4.50
2022-10-01T20:57:58.812Z,1.20
2022-10-01T21:00:27.207Z,1.98
2022-10-01T21:03:05.512Z,1.92
2022-10-01T21:05:37.316Z,4.20
2022-10-01T21:10:51.151Z,1.55
2022-10-01T21:13:30.207Z,1.90
2022-10-01T21:16:05.617Z,2.50
2022-10-01T21:19:13.088Z,2.42
2022-10-01T21:22:01.851Z,1.02
2022-10-01T21:24:28.415Z,2.45
2022-10-01T21:27:07.953Z,2.00
2022-10-01T21:30:02.896Z,1.55
2022-10-01T21:33:01.366Z,3.33
2022-10-01T21:35:43.911Z,1.30
2022-10-01T21:38:34.307Z,2.95
2022-10-01T21:41:27.620Z,1.60
2022-10-01T21:44:31.814Z,1.20
2022-10-01T21:47:19.561Z,1.48
2022-10-01T21:49:53.337Z,2.78
2022-10-01T21:52:42.966Z,2.47
2022-10-01T21:55:18.379Z,2.28
2022-10-01T21:58:23.362Z,1.65
2022-10-01T22:01:15.977Z,1.58
2022-10-01T22:03:47.989Z,1.52
2022-10-01T22:06:45.162Z,2.33
2022-10-01T22:09:29.928Z,1.52
2022-10-01T22:11:59.231Z,1.15
2022-10-01T22:14:26.573Z,1.42
2022-10-01T22:17:07.904Z,1.33
2022-10-01T22:19:37.342Z,2.25
2022-10-01T22:22:18.395Z,1.77
2022-10-01T22:24:49.310Z,1.87
2022-10-01T22:27:25.268Z,2.83
2022-10-01T22:30:19.845Z,2.75
2022-10-01T22:32:51.836Z,2.42
2022-10-01T22:35:47.543Z,1.42
2022-10-01T22:38:21.675Z,1.02
2022-10-01T22:40:53.732Z,1.65
2022-10-01T22:43:20.396Z,1.75
2022-10-01T22:46:19.908Z,2.28
2022-10-01T22:48:55.528Z,3.78
2022-10-01T22:51:24.938Z,1.77
2022-10-01T22:54:03.860Z,1.20
2022-10-01T22:56:40.535Z,1.30
2022-10-01T22:59:19.805Z,2.67
2022-10-01T23:02:00.092Z,1.85
2022-10-01T23:04:36.107Z,3.05
2022-10-01T23:07:24.456Z,3.10
2022-10-01T23:09:58.102Z,1.45
2022-10-01T23:12:53.734Z,2.75
2022-10-01T23:15:26.066Z,2.20
2022-10-01T23:18:47.201Z,1.88
2022-10-01T23:21:13.685Z,1.33
2022-10-01T23:23:40.918Z,3.63
2022-10-01T23:26:35.301Z,3.47
2022-10-01T23:29:21.881Z,2.05
2022-10-01T23:32:06.717Z,2.25
2022-10-01T23:34:39.223Z,3.45
2022-10-01T23:37:05.783Z,1.55
2022-10-01T23:39:44.660Z,3.83
2022-10-01T23:42:22.765Z,1.65
2022-10-01T23:45:04.101Z,3.55
2022-10-01T23:47:40.357Z,1.70
2022-10-01T23:50:08.555Z,2.40
2022-10-01T23:52:41.304Z,1.35
2022-10-01T23:55:55.161Z,1.77
2022-10-01T23:58:22.364Z,1.60
